createdAt,value
2022-08-10T00:00:59.658Z,20.09
2022-08-10T00:03:25.956Z,20.03
2022-08-10T00:05:54.814Z,19.96
2022-08-10T00:08:23.809Z,19.93
2022-08-10T00:10:50.582Z,19.88
2022-08-10T00:13:16.927Z,19.88
2022-08-10T00:15:44.384Z,19.87
2022-08-10T00:18:35.105Z,19.81
2022-08-10T00:21:01.770Z,19.79
2022-08-10T00:23:28.069Z,19.71
2022-08-10T00:25:54.358Z,19.68
2022-08-10T00:28:20.646Z,19.16
2022-08-10T00:30:46.931Z,19.32
2022-08-10T00:33:13.225Z,19.44
2022-08-10T00:35:42.611Z,19.40
2022-08-10T00:38:08.930Z,19.39
2022-08-10T00:40:38.036Z,19.45
2022-08-10T00:43:04.530Z,19.47
2022-08-10T00:45:31.075Z,19.44
2022-08-10T00:47:57.391Z,19.37
2022-08-10T00:50:23.704Z,19.30
2022-08-10T00:52:49.987Z,19.27
2022-08-10T00:55:16.315Z,19.04
2022-08-10T00:57:42.609Z,19.12
2022-08-10T01:00:09.530Z,19.16
2022-08-10T01:02:36.062Z,19.20
2022-08-10T01:05:03.012Z,19.20
2022-08-10T01:07:29.470Z,19.11
2022-08-10T01:09:57.351Z,19.10
2022-08-10T01:12:41.022Z,19.01
2022-08-10T01:15:08.269Z,19.03
2022-08-10T01:17:50.896Z,18.95
2022-08-10T01:20:30.532Z,18.97
2022-08-10T01:22:57.615Z,18.98
2022-08-10T01:25:23.912Z,18.89
2022-08-10T01:27:50.211Z,18.81
2022-08-10T01:30:18.194Z,18.72
2022-08-10T01:32:44.436Z,18.62
2022-08-10T01:35:10.742Z,18.68
2022-08-10T01:37:37.080Z,18.70
2022-08-10T01:40:03.417Z,18.62
2022-08-10T01:42:29.710Z,18.50
2022-08-10T01:44:56.024Z,18.61
2022-08-10T01:47:41.071Z,18.47
2022-08-10T01:50:07.970Z,18.45
2022-08-10T01:52:34.539Z,18.40
2022-08-10T01:55:00.982Z,18.36
2022-08-10T01:57:27.284Z,18.33
2022-08-10T01:59:58.742Z,18.34
2022-08-10T02:02:29.162Z,18.22
2022-08-10T02:04:55.457Z,18.13
2022-08-10T02:07:21.754Z,18.19
2022-08-10T02:09:48.046Z,18.15
2022-08-10T02:12:14.335Z,18.06
2022-08-10T02:14:40.636Z,18.10
2022-08-10T02:17:07.052Z,18.09
2022-08-10T02:19:33.372Z,18.10
2022-08-10T02:22:37.834Z,18.05
2022-08-10T02:24:45.950Z,17.97
2022-08-10T02:27:12.238Z,17.99
2022-08-10T02:29:38.544Z,17.96
2022-08-10T02:32:08.804Z,17.93
2022-08-10T02:34:36.025Z,17.89
2022-08-10T02:37:02.328Z,17.82
2022-08-10T02:39:37.358Z,17.81
2022-08-10T02:45:03.126Z,17.82
2022-08-10T02:45:29.419Z,17.81
2022-08-10T02:47:51.729Z,17.78
2022-08-10T02:50:18.854Z,17.67
2022-08-10T02:52:45.159Z,17.73
2022-08-10T02:55:18.240Z,17.71
2022-08-10T02:58:17.453Z,17.67
2022-08-10T03:00:35.512Z,17.65
2022-08-10T03:03:01.874Z,17.62
2022-08-10T03:05:28.244Z,17.55
2022-08-10T03:07:54.559Z,17.54
2022-08-10T03:10:20.852Z,17.40
2022-08-10T03:12:47.304Z,17.35
2022-08-10T03:15:15.562Z,17.39
2022-08-10T03:17:42.334Z,17.38
2022-08-10T03:20:37.247Z,17.38
2022-08-10T03:23:05.525Z,17.37
2022-08-10T03:25:31.807Z,17.37
2022-08-10T03:27:58.086Z,17.32
2022-08-10T03:30:32.689Z,17.28
2022-08-10T03:33:00.347Z,17.26
2022-08-10T03:35:26.644Z,17.28
2022-08-10T03:37:55.868Z,17.29
2022-08-10T03:40:25.881Z,17.09
2022-08-10T03:43:12.155Z,17.20
2022-08-10T03:45:54.147Z,17.26
2022-08-10T03:48:21.878Z,17.27
2022-08-10T03:50:51.966Z,17.26
2022-08-10T03:53:24.984Z,17.23
2022-08-10T03:56:27.306Z,17.13
2022-08-10T03:58:51.507Z,17.16
2022-08-10T04:01:17.872Z,17.26
2022-08-10T04:03:44.181Z,17.26
2022-08-10T04:06:10.467Z,17.33
2022-08-10T04:08:36.771Z,17.27
2022-08-10T04:11:03.133Z,17.32
2022-08-10T04:13:29.446Z,17.36
2022-08-10T04:15:55.743Z,17.36
2022-08-10T04:18:22.046Z,17.33
2022-08-10T04:20:48.341Z,17.37
2022-08-10T04:23:14.638Z,17.36
2022-08-10T04:25:40.952Z,17.35
2022-08-10T04:28:07.251Z,17.24
2022-08-10T04:30:33.575Z,17.21
2022-08-10T04:32:59.896Z,17.23
2022-08-10T04:35:26.185Z,17.26
2022-08-10T04:37:52.514Z,17.38
2022-08-10T04:40:29.709Z,17.37
2022-08-10T04:43:02.248Z,17.31
2022-08-10T04:45:48.750Z,17.36
2022-08-10T04:48:42.084Z,17.35
2022-08-10T04:51:02.456Z,17.41
2022-08-10T04:53:30.568Z,17.47
2022-08-10T04:55:56.867Z,17.32
2022-08-10T04:58:23.150Z,17.52
2022-08-10T05:00:49.468Z,17.58
2022-08-10T05:03:15.792Z,17.72
2022-08-10T05:05:42.089Z,17.54
2022-08-10T05:08:08.378Z,17.63
2022-08-10T05:10:34.732Z,17.57
2022-08-10T05:13:01.028Z,17.54
2022-08-10T05:15:27.427Z,17.67
2022-08-10T05:18:08.278Z,17.89
2022-08-10T05:20:36.295Z,18.02
2022-08-10T05:23:02.610Z,18.25
2022-08-10T05:25:28.925Z,18.26
2022-08-10T05:28:01.946Z,18.30
2022-08-10T05:30:32.045Z,18.47
2022-08-10T05:33:01.677Z,18.58
2022-08-10T05:35:34.665Z,18.29
2022-08-10T05:38:16.486Z,18.42
2022-08-10T05:40:47.262Z,18.41
2022-08-10T05:43:14.254Z,18.79
2022-08-10T05:46:19.635Z,18.45
2022-08-10T05:48:58.223Z,18.22
2022-08-10T05:51:16.032Z,18.13
2022-08-10T05:54:00.956Z,18.15
2022-08-10T05:56:56.491Z,18.13
2022-08-10T05:59:16.986Z,18.36
2022-08-10T06:02:32.867Z,18.51
2022-08-10T06:04:49.572Z,18.75
2022-08-10T06:07:18.892Z,18.68
2022-08-10T06:09:59.734Z,18.95
2022-08-10T06:12:30.178Z,18.91
2022-08-10T06:15:05.297Z,19.20
2022-08-10T06:17:32.406Z,19.27
2022-08-10T06:19:58.743Z,19.41
2022-08-10T06:22:25.061Z,19.34
2022-08-10T06:25:27.017Z,19.30
2022-08-10T06:27:37.623Z,19.58
2022-08-10T06:30:03.926Z,19.93
2022-08-10T06:32:46.740Z,20.04
2022-08-10T06:35:13.045Z,20.18
2022-08-10T06:37:39.346Z,20.49
2022-08-10T06:40:05.674Z,20.53
2022-08-10T06:42:32.622Z,20.75
2022-08-10T06:44:58.989Z,20.41
2022-08-10T06:47:25.290Z,20.78
2022-08-10T06:49:51.596Z,21.10
2022-08-10T06:52:18.594Z,21.21
2022-08-10T06:54:44.903Z,21.25
2022-08-10T06:57:18.774Z,21.45
2022-08-10T06:59:45.307Z,21.65
2022-08-10T07:02:11.809Z,20.92
2022-08-10T07:04:38.382Z,21.00
2022-08-10T07:07:04.673Z,21.25
2022-08-10T07:09:30.954Z,21.55
2022-08-10T07:11:57.261Z,21.92
2022-08-10T07:14:34.464Z,22.13
2022-08-10T07:17:00.712Z,22.31
2022-08-10T07:19:27.007Z,22.52
2022-08-10T07:21:53.343Z,21.99
2022-08-10T07:24:24.413Z,22.23
2022-08-10T07:26:50.694Z,22.15
2022-08-10T07:29:26.675Z,22.63
2022-08-10T07:32:03.318Z,23.00
2022-08-10T07:34:30.206Z,23.08
2022-08-10T07:36:56.499Z,23.29
2022-08-10T07:40:01.782Z,23.18
2022-08-10T07:42:09.088Z,22.39
2022-08-10T07:44:35.399Z,22.50
2022-08-10T07:47:01.756Z,22.95
2022-08-10T07:49:28.051Z,23.32
2022-08-10T07:51:56.170Z,23.17
2022-08-10T07:54:22.466Z,22.70
2022-08-10T07:56:50.037Z,23.36
2022-08-10T07:59:16.391Z,23.30
2022-08-10T08:01:42.794Z,23.67
2022-08-10T08:04:11.783Z,23.75
2022-08-10T08:06:38.506Z,23.75
2022-08-10T08:09:04.818Z,23.64
2022-08-10T08:11:31.114Z,23.79
2022-08-10T08:13:57.420Z,24.30
2022-08-10T08:16:23.721Z,24.74
2022-08-10T08:19:04.003Z,24.37
2022-08-10T08:24:06.967Z,24.69
2022-08-10T08:24:33.384Z,24.73
2022-08-10T08:27:00.098Z,25.01
2022-08-10T08:29:26.429Z,25.04
2022-08-10T08:32:01.085Z,25.32
2022-08-10T08:34:29.083Z,25.61
2022-08-10T08:36:59.396Z,25.61
2022-08-10T08:39:26.119Z,25.68
2022-08-10T08:41:52.455Z,25.51
2022-08-10T08:44:18.752Z,25.72
2022-08-10T08:46:45.034Z,25.95
2022-08-10T08:49:11.635Z,25.67
2022-08-10T08:52:17.276Z,26.02
2022-08-10T08:54:24.274Z,26.11
2022-08-10T08:56:50.776Z,26.02
2022-08-10T08:59:17.826Z,26.19
2022-08-10T09:01:44.212Z,25.29
2022-08-10T09:04:16.189Z,25.93
2022-08-10T09:06:48.094Z,26.54
2022-08-10T09:09:15.445Z,26.53
2022-08-10T09:11:45.592Z,26.59
2022-08-10T09:14:11.938Z,26.54
2022-08-10T09:16:39.459Z,26.64
2022-08-10T09:19:05.743Z,26.82
2022-08-10T09:21:32.038Z,27.24
2022-08-10T09:24:01.521Z,27.17
2022-08-10T09:26:30.685Z,27.04
2022-08-10T09:29:11.734Z,27.59
2022-08-10T09:31:39.660Z,27.54
2022-08-10T09:36:23.869Z,27.65
2022-08-10T09:36:52.374Z,27.87
2022-08-10T09:40:46.245Z,28.37
2022-08-10T09:42:05.857Z,28.40
2022-08-10T09:44:58.113Z,28.26
2022-08-10T09:47:58.698Z,28.88
2022-08-10T09:50:11.244Z,28.40
2022-08-10T09:52:37.697Z,27.57
2022-08-10T09:55:04.823Z,27.21
2022-08-10T09:57:43.944Z,26.78
2022-08-10T10:00:15.437Z,26.72
2022-08-10T10:02:43.397Z,27.52
2022-08-10T10:05:09.726Z,27.86
2022-08-10T10:07:36.117Z,27.64
2022-08-10T10:10:02.504Z,27.86
2022-08-10T10:12:28.796Z,28.40
2022-08-10T10:15:24.877Z,27.75
2022-08-10T10:17:52.069Z,27.75
2022-08-10T10:20:18.367Z,27.86
2022-08-10T10:22:44.700Z,27.96
2022-08-10T10:25:19.666Z,27.56
2022-08-10T10:27:48.122Z,27.97
2022-08-10T10:30:14.369Z,27.78
2022-08-10T10:32:40.655Z,27.90
2022-08-10T10:35:06.953Z,28.29
2022-08-10T10:38:01.003Z,28.28
2022-08-10T10:40:19.528Z,28.18
2022-08-10T10:42:46.942Z,27.44
2022-08-10T10:45:14.664Z,27.70
2022-08-10T10:47:46.258Z,27.58
2022-08-10T10:50:15.702Z,27.73
2022-08-10T10:52:42.017Z,27.90
2022-08-10T10:55:08.326Z,28.40
2022-08-10T10:57:59.107Z,28.69
2022-08-10T11:00:22.094Z,27.97
2022-08-10T11:02:48.573Z,27.76
2022-08-10T11:05:14.912Z,27.67
2022-08-10T11:07:41.257Z,27.42
2022-08-10T11:10:32.371Z,27.48
2022-08-10T11:13:06.884Z,27.90
2022-08-10T11:15:47.592Z,28.39
2022-08-10T11:18:14.105Z,28.34
2022-08-10T11:20:43.432Z,28.08
2022-08-10T11:23:09.726Z,28.06
2022-08-10T11:25:36.035Z,28.08
2022-08-10T11:28:02.347Z,27.86
2022-08-10T11:30:28.654Z,28.03
2022-08-10T11:32:54.964Z,28.35
2022-08-10T11:35:21.292Z,28.46
2022-08-10T11:38:32.387Z,28.61
2022-08-10T11:40:33.880Z,28.71
2022-08-10T11:43:00.175Z,28.92
2022-08-10T11:45:26.482Z,28.99
2022-08-10T11:47:52.782Z,29.40
2022-08-10T11:50:19.071Z,29.12
2022-08-10T11:52:45.377Z,29.35
2022-08-10T11:55:12.348Z,29.70
2022-08-10T11:57:53.058Z,29.97
2022-08-10T12:00:21.222Z,29.90
2022-08-10T12:02:47.588Z,29.70
2022-08-10T12:05:16.763Z,29.38
2022-08-10T12:08:54.668Z,29.84
2022-08-10T12:10:29.311Z,29.56
2022-08-10T12:12:55.618Z,30.01
2022-08-10T12:15:21.914Z,29.94
2022-08-10T12:17:48.486Z,29.98
2022-08-10T12:20:14.766Z,30.08
2022-08-10T12:22:41.413Z,29.99
2022-08-10T12:25:07.650Z,29.91
2022-08-10T12:27:33.984Z,29.79
2022-08-10T12:30:00.319Z,30.03
2022-08-10T12:32:26.638Z,29.81
2022-08-10T12:34:52.950Z,30.12
2022-08-10T12:37:19.253Z,29.94
2022-08-10T12:39:45.629Z,30.12
2022-08-10T12:42:11.964Z,30.12
2022-08-10T12:44:58.184Z,29.90
2022-08-10T12:47:24.477Z,29.85
2022-08-10T12:50:21.639Z,28.96
2022-08-10T12:52:37.152Z,29.06
2022-08-10T12:55:03.788Z,29.40
2022-08-10T12:57:30.224Z,29.14
2022-08-10T12:59:56.560Z,29.32
2022-08-10T13:02:22.887Z,29.53
2022-08-10T13:04:49.215Z,29.31
2022-08-10T13:08:03.934Z,29.56
2022-08-10T13:10:02.805Z,29.27
2022-08-10T13:12:37.099Z,28.67
2022-08-10T13:15:46.016Z,28.73
2022-08-10T13:17:53.254Z,29.35
2022-08-10T13:20:20.158Z,29.42
2022-08-10T13:22:46.476Z,29.31
2022-08-10T13:25:12.785Z,29.64
2022-08-10T13:28:00.692Z,29.62
2022-08-10T13:30:37.251Z,29.51
2022-08-10T13:33:04.403Z,29.30
2022-08-10T13:35:30.761Z,29.06
2022-08-10T13:37:57.913Z,28.84
2022-08-10T13:40:24.279Z,29.00
2022-08-10T13:42:51.428Z,28.90
2022-08-10T13:45:17.734Z,28.81
2022-08-10T13:47:49.429Z,28.90
2022-08-10T13:50:16.268Z,28.66
2022-08-10T13:52:45.634Z,28.80
2022-08-10T13:55:13.104Z,29.06
2022-08-10T13:57:43.990Z,29.26
2022-08-10T14:00:35.304Z,29.51
2022-08-10T14:03:00.214Z,29.54
2022-08-10T14:05:26.534Z,29.82
2022-08-10T14:08:00.510Z,30.16
2022-08-10T14:11:08.485Z,29.78
2022-08-10T14:13:13.741Z,29.94
2022-08-10T14:15:40.093Z,30.28
2022-08-10T14:18:06.384Z,30.35
2022-08-10T14:20:32.693Z,29.80
2022-08-10T14:22:59.154Z,29.94
2022-08-10T14:25:25.445Z,29.91
2022-08-10T14:28:02.894Z,29.77
2022-08-10T14:30:31.157Z,29.45
2022-08-10T14:32:57.500Z,29.13
2022-08-10T14:36:21.179Z,28.69
2022-08-10T14:38:09.995Z,28.76
2022-08-10T14:40:37.809Z,28.84
2022-08-10T14:43:04.109Z,28.89
2022-08-10T14:45:30.398Z,28.55
2022-08-10T14:48:00.942Z,28.55
2022-08-10T14:50:32.159Z,28.62
2022-08-10T14:52:59.136Z,28.91
2022-08-10T14:55:25.438Z,28.69
2022-08-10T14:58:19.422Z,28.58
2022-08-10T15:00:42.519Z,28.65
2022-08-10T15:03:10.861Z,28.50
2022-08-10T15:05:59.143Z,28.58
2022-08-10T15:08:25.860Z,28.60
2022-08-10T15:10:52.151Z,27.96
2022-08-10T15:13:33.566Z,28.23
2022-08-10T15:16:12.566Z,28.05
2022-08-10T15:18:40.040Z,28.11
2022-08-10T15:21:17.361Z,28.15
2022-08-10T15:24:05.557Z,28.40
2022-08-10T15:26:30.344Z,28.52
2022-08-10T15:29:22.669Z,28.59
2022-08-10T15:32:02.160Z,28.60
2022-08-10T15:34:46.983Z,28.21
2022-08-10T15:37:40.218Z,28.50
2022-08-10T15:40:26.699Z,28.67
2022-08-10T15:42:49.211Z,28.69
2022-08-10T15:45:15.791Z,28.63
2022-08-10T15:47:45.694Z,28.63
2022-08-10T15:50:13.093Z,28.80
2022-08-10T15:53:01.041Z,28.79
2022-08-10T15:55:43.614Z,28.96
2022-08-10T15:58:13.379Z,28.98
2022-08-10T16:00:39.701Z,29.12
2022-08-10T16:03:06.013Z,29.29
2022-08-10T16:06:00.854Z,29.31
2022-08-10T16:08:25.647Z,29.35
2022-08-10T16:10:53.620Z,29.47
2022-08-10T16:14:00.707Z,29.40
2022-08-10T16:16:07.302Z,29.06
2022-08-10T16:18:33.587Z,29.07
2022-08-10T16:20:59.897Z,29.20
2022-08-10T16:23:26.227Z,28.97
2022-08-10T16:25:59.304Z,28.95
2022-08-10T16:28:28.087Z,29.12
2022-08-10T16:30:54.404Z,29.07
2022-08-10T16:33:20.702Z,29.05
2022-08-10T16:35:49.884Z,29.08
2022-08-10T16:38:16.310Z,28.93
2022-08-10T16:40:42.631Z,28.95
2022-08-10T16:43:09.006Z,28.89
2022-08-10T16:45:35.294Z,28.65
2022-08-10T16:48:01.619Z,28.58
2022-08-10T16:50:27.905Z,28.64
2022-08-10T16:52:54.215Z,28.49
2022-08-10T16:55:27.100Z,28.20
2022-08-10T16:58:06.745Z,28.24
2022-08-10T17:00:33.045Z,28.28
2022-08-10T17:02:59.965Z,28.23
2022-08-10T17:06:01.419Z,28.08
2022-08-10T17:08:12.547Z,28.06
2022-08-10T17:10:38.871Z,28.02
2022-08-10T17:13:05.473Z,28.01
2022-08-10T17:15:31.774Z,28.02
2022-08-10T17:17:58.848Z,27.92
2022-08-10T17:20:30.514Z,27.97
2022-08-10T17:22:58.894Z,27.89
2022-08-10T17:25:25.201Z,27.91
2022-08-10T17:28:11.488Z,27.80
2022-08-10T17:30:57.886Z,27.86
2022-08-10T17:33:24.731Z,27.68
2022-08-10T17:35:51.025Z,27.64
2022-08-10T17:38:17.652Z,27.66
2022-08-10T17:40:45.160Z,27.61
2022-08-10T17:43:11.464Z,27.54
2022-08-10T17:45:46.998Z,27.40
2022-08-10T17:48:15.599Z,27.36
2022-08-10T17:50:41.964Z,27.31
2022-08-10T17:53:08.265Z,27.24
2022-08-10T17:55:34.752Z,27.15
2022-08-10T17:58:02.204Z,27.10
2022-08-10T18:00:28.764Z,27.03
2022-08-10T18:02:55.111Z,26.96
2022-08-10T18:05:21.429Z,26.92
2022-08-10T18:07:47.722Z,26.86
2022-08-10T18:10:14.002Z,26.82
2022-08-10T18:12:40.332Z,26.75
2022-08-10T18:15:06.653Z,26.49
2022-08-10T18:17:39.786Z,26.50
2022-08-10T18:20:06.212Z,26.43
2022-08-10T18:22:32.632Z,26.30
2022-08-10T18:24:58.976Z,26.42
2022-08-10T18:28:00.190Z,26.33
2022-08-10T18:30:11.534Z,26.26
2022-08-10T18:32:37.857Z,26.19
2022-08-10T18:35:04.238Z,26.20
2022-08-10T18:37:30.634Z,26.13
2022-08-10T18:39:57.025Z,25.95
2022-08-10T18:42:23.360Z,25.99
2022-08-10T18:44:50.217Z,25.94
2022-08-10T18:47:16.490Z,25.83
2022-08-10T18:49:42.788Z,25.60
2022-08-10T18:52:09.096Z,25.66
2022-08-10T18:54:44.455Z,25.63
2022-08-10T18:57:11.779Z,25.62
2022-08-10T18:59:38.113Z,25.56
2022-08-10T19:02:04.400Z,25.48
2022-08-10T19:04:30.705Z,25.41
2022-08-10T19:06:56.990Z,25.36
2022-08-10T19:09:47.791Z,25.28
2022-08-10T19:12:29.984Z,25.18
2022-08-10T19:14:56.019Z,25.12
2022-08-10T19:17:22.310Z,25.04
2022-08-10T19:19:48.670Z,24.73
2022-08-10T19:22:14.989Z,24.73
2022-08-10T19:24:41.288Z,24.59
2022-08-10T19:27:07.583Z,24.47
2022-08-10T19:30:08.714Z,24.35
2022-08-10T19:32:20.392Z,24.41
2022-08-10T19:34:46.670Z,24.39
2022-08-10T19:37:15.686Z,24.39
2022-08-10T19:39:51.067Z,24.36
2022-08-10T19:42:17.742Z,24.29
2022-08-10T19:44:44.159Z,24.22
2022-08-10T19:47:11.131Z,24.17
2022-08-10T19:49:40.045Z,24.09
2022-08-10T19:52:11.044Z,24.06
2022-08-10T19:54:38.046Z,23.96
2022-08-10T19:57:04.390Z,23.92
2022-08-10T20:00:16.088Z,23.83
2022-08-10T20:02:16.982Z,23.80
2022-08-10T20:04:43.289Z,23.71
2022-08-10T20:07:09.734Z,23.65
2022-08-10T20:09:36.027Z,23.67
2022-08-10T20:12:02.339Z,23.65
2022-08-10T20:14:28.644Z,23.55
2022-08-10T20:16:56.258Z,23.52
2022-08-10T20:19:22.689Z,23.48
2022-08-10T20:21:49.006Z,23.39
2022-08-10T20:24:15.308Z,23.37
2022-08-10T20:26:41.638Z,23.33
2022-08-10T20:29:07.956Z,23.27
2022-08-10T20:31:34.253Z,23.18
2022-08-10T20:34:01.824Z,23.16
2022-08-10T20:36:28.303Z,23.13
2022-08-10T20:38:54.630Z,23.08
2022-08-10T20:41:20.987Z,23.04
2022-08-10T20:43:47.313Z,23.01
2022-08-10T20:46:13.613Z,22.90
2022-08-10T20:48:40.080Z,22.86
2022-08-10T20:51:06.369Z,22.68
2022-08-10T20:53:32.660Z,22.77
2022-08-10T20:55:58.960Z,22.75
2022-08-10T20:58:25.354Z,22.69
2022-08-10T21:00:51.738Z,22.69
2022-08-10T21:03:22.136Z,22.65
2022-08-10T21:05:52.626Z,22.58
2022-08-10T21:08:19.185Z,22.55
2022-08-10T21:10:45.509Z,22.50
2022-08-10T21:13:11.882Z,22.44
2022-08-10T21:15:41.659Z,22.33
2022-08-10T21:18:08.482Z,22.33
2022-08-10T21:20:34.901Z,22.31
2022-08-10T21:23:05.441Z,22.25
2022-08-10T21:25:32.101Z,22.20
2022-08-10T21:27:59.446Z,22.16
2022-08-10T21:30:25.702Z,22.10
2022-08-10T21:32:53.872Z,22.00
2022-08-10T21:35:36.618Z,22.00
2022-08-10T21:38:04.231Z,21.87
2022-08-10T21:40:35.003Z,21.74
2022-08-10T21:43:20.805Z,21.68
2022-08-10T21:46:05.672Z,21.69
2022-08-10T21:48:57.833Z,21.65
2022-08-10T21:52:02.252Z,21.58
2022-08-10T21:54:48.849Z,21.61
2022-08-10T21:57:38.243Z,21.56
2022-08-10T22:00:29.570Z,21.48
2022-08-10T22:03:14.762Z,21.40
2022-08-10T22:06:02.748Z,21.36
2022-08-10T22:08:47.645Z,21.40
2022-08-10T22:11:37.211Z,21.36
2022-08-10T22:14:22.663Z,21.36
2022-08-10T22:17:59.596Z,21.34
2022-08-10T22:20:15.402Z,21.26
2022-08-10T22:23:18.869Z,21.18
2022-08-10T22:26:04.249Z,21.14
2022-08-10T22:28:49.494Z,21.12
2022-08-10T22:34:24.474Z,21.06
2022-08-10T22:37:09.278Z,21.08
2022-08-10T22:40:10.029Z,21.04
2022-08-10T22:43:10.462Z,21.07
2022-08-10T22:45:56.999Z,20.98
2022-08-10T22:48:41.815Z,20.98
2022-08-10T22:51:08.512Z,20.95
2022-08-10T22:53:53.372Z,20.88
2022-08-10T22:56:38.145Z,20.77
2022-08-10T22:59:04.460Z,20.79
2022-08-10T23:01:40.718Z,20.79
2022-08-10T23:04:07.266Z,20.78
2022-08-10T23:06:33.559Z,20.75
2022-08-10T23:08:59.874Z,20.75
2022-08-10T23:11:26.192Z,20.73
2022-08-10T23:13:52.485Z,20.63
2022-08-10T23:16:37.439Z,20.63
2022-08-10T23:19:09.632Z,20.60
2022-08-10T23:22:03.039Z,20.63
2022-08-10T23:24:22.221Z,20.62
2022-08-10T23:26:48.526Z,20.57
2022-08-10T23:29:17.243Z,20.54
2022-08-10T23:32:01.073Z,20.43
2022-08-10T23:34:29.835Z,20.44
2022-08-10T23:36:56.133Z,20.40
2022-08-10T23:39:27.529Z,20.38
2022-08-10T23:41:54.041Z,20.37
2022-08-10T23:44:20.930Z,20.34
2022-08-10T23:46:47.545Z,20.25
2022-08-10T23:49:13.962Z,20.22
2022-08-10T23:51:55.379Z,20.17
2022-08-10T23:54:22.926Z,20.14
2022-08-10T23:56:49.221Z,20.06
2022-08-10T23:59:15.545Z,20.08
